Time;durP1;ratioP1;P1;durP2;ratioP2;P2;SDS_P1;SDS_P2;PMS_P1;PMS_P2;Temp;Humidity;BMP_temperature;BMP_pressure;BME280_temperature;BME280_humidity;BME280_pressure;Samples;Min_cycle;Max_cycle;Signal;HPM_P1;HPM_P2
2021/10/17 00:02:26;;;;;;;19.02;10.77;;;;;;;6.97;100.00;95045.19;10294043;28;20290;-70
2021/10/17 00:07:26;;;;;;;19.80;10.73;;;;;;;6.97;100.00;95044.38;10276902;28;20026;-68
2021/10/17 00:12:26;;;;;;;20.75;11.35;;;;;;;6.95;100.00;95051.81;10292766;28;20033;-73
2021/10/17 00:17:27;;;;;;;23.40;10.97;;;;;;;6.95;100.00;95041.13;10292930;28;20647;-69
2021/10/17 00:22:27;;;;;;;21.03;10.70;;;;;;;7.01;100.00;95045.53;10275849;28;20297;-67
2021/10/17 00:27:28;;;;;;;22.67;12.60;;;;;;;6.88;100.00;95046.66;10276825;28;20289;-72
2021/10/17 00:32:28;;;;;;;27.35;11.98;;;;;;;6.89;100.00;95045.59;10276876;28;20638;-74
2021/10/17 00:37:29;;;;;;;26.02;12.95;;;;;;;6.84;100.00;95046.31;10276204;28;20022;-69
2021/10/17 00:42:29;;;;;;;25.05;11.93;;;;;;;6.81;100.00;95038.78;10275234;28;20102;-72
2021/10/17 00:47:30;;;;;;;21.03;12.00;;;;;;;6.76;100.00;95049.38;10275809;28;20177;-69
2021/10/17 00:52:30;;;;;;;22.88;12.35;;;;;;;6.90;100.00;95044.53;10275997;28;20776;-70
2021/10/17 00:57:32;;;;;;;25.23;13.63;;;;;;;6.85;100.00;95055.13;10260149;28;20039;-67
2021/10/17 01:02:33;;;;;;;29.42;13.23;;;;;;;7.05;100.00;95056.53;10259984;28;20152;-69
2021/10/17 01:07:33;;;;;;;25.38;12.27;;;;;;;6.93;100.00;95056.59;10276197;28;20125;-73
2021/10/17 01:12:34;;;;;;;26.52;13.40;;;;;;;7.00;100.00;95055.41;10271207;28;20113;-70
2021/10/17 01:17:35;;;;;;;22.95;13.30;;;;;;;6.87;100.00;95055.72;10291445;28;20065;-68
2021/10/17 01:22:37;;;;;;;26.73;13.82;;;;;;;6.76;100.00;95054.72;10275443;28;20046;-73
2021/10/17 01:27:39;;;;;;;26.75;13.63;;;;;;;6.79;100.00;95054.25;10275607;28;20432;-70
2021/10/17 01:32:39;;;;;;;29.23;13.32;;;;;;;6.88;100.00;95051.19;10291673;28;20615;-69
2021/10/17 01:37:40;;;;;;;25.17;12.53;;;;;;;6.98;100.00;95046.00;10275053;28;20030;-69
2021/10/17 01:42:40;;;;;;;24.80;11.88;;;;;;;6.93;100.00;95052.06;10276215;28;20314;-70
2021/10/17 01:47:46;;;;;;;23.88;12.45;;;;;;;7.13;100.00;95048.09;10274744;28;20117;-74
2021/10/17 01:52:47;;;;;;;23.95;13.07;;;;;;;7.33;100.00;95047.63;10277779;28;20089;-75
2021/10/17 01:57:47;;;;;;;24.38;12.13;;;;;;;7.24;100.00;95035.72;10283552;28;20568;-67
2021/10/17 02:02:48;;;;;;;22.85;11.57;;;;;;;7.42;100.00;95040.78;10283863;28;20477;-69
2021/10/17 02:07:48;;;;;;;24.90;12.87;;;;;;;7.56;100.00;95029.75;10281560;28;20485;-72
2021/10/17 02:12:48;;;;;;;24.75;12.63;;;;;;;7.56;100.00;95035.09;10281345;28;20278;-69
2021/10/17 02:17:49;;;;;;;22.33;11.53;;;;;;;7.55;100.00;95028.97;10280855;28;20027;-70
2021/10/17 02:22:49;;;;;;;25.90;13.40;;;;;;;7.58;100.00;95022.31;10281231;28;21102;-67
2021/10/17 02:27:50;;;;;;;30.10;13.83;;;;;;;7.49;100.00;95021.91;10271453;28;20039;-69
2021/10/17 02:32:50;;;;;;;25.55;12.60;;;;;;;7.45;100.00;95036.81;10282417;28;20280;-74
2021/10/17 02:37:51;;;;;;;28.23;14.15;;;;;;;7.55;100.00;95039.66;10281150;28;20093;-77
2021/10/17 02:42:51;;;;;;;29.30;12.57;;;;;;;7.58;100.00;95041.03;10280769;28;20047;-70
2021/10/17 02:47:52;;;;;;;24.80;12.57;;;;;;;7.67;100.00;95051.06;10296558;28;20023;-70
2021/10/17 02:52:52;;;;;;;26.02;13.00;;;;;;;7.65;100.00;95047.81;10296549;28;20594;-69
2021/10/17 02:57:53;;;;;;;33.97;13.80;;;;;;;7.65;100.00;95045.13;10280249;28;20034;-68
2021/10/17 03:02:53;;;;;;;30.20;14.52;;;;;;;7.73;100.00;95051.09;10279350;28;20297;-70
2021/10/17 03:07:53;;;;;;;30.60;14.73;;;;;;;7.59;100.00;95051.47;10280895;28;20033;-69
2021/10/17 03:12:54;;;;;;;32.60;14.65;;;;;;;7.51;100.00;95050.03;10279364;28;20026;-77
2021/10/17 03:17:54;;;;;;;29.23;13.25;;;;;;;7.57;100.00;95050.91;10280042;28;20030;-75
2021/10/17 03:22:55;;;;;;;27.70;13.80;;;;;;;7.43;100.00;95049.63;10279035;28;20027;-70
2021/10/17 03:27:55;;;;;;;29.30;13.67;;;;;;;7.26;100.00;95046.97;10278925;28;20572;-71
2021/10/17 03:32:56;;;;;;;30.95;14.00;;;;;;;7.14;100.00;95061.22;10262782;28;20266;-75
2021/10/17 03:37:56;;;;;;;35.58;15.55;;;;;;;7.16;100.00;95058.34;10278254;28;20493;-68
2021/10/17 03:42:56;;;;;;;31.75;15.07;;;;;;;7.21;100.00;95055.72;10277805;28;20059;-74
2021/10/17 03:47:57;;;;;;;31.60;15.17;;;;;;;7.46;100.00;95055.28;10277824;28;20065;-73
2021/10/17 03:52:58;;;;;;;29.50;14.27;;;;;;;7.60;100.00;95062.97;10277381;28;20281;-69
2021/10/17 03:57:58;;;;;;;29.00;14.73;;;;;;;7.53;100.00;95060.47;10279442;28;20420;-74
2021/10/17 04:02:59;;;;;;;26.93;12.73;;;;;;;7.47;100.00;95061.47;10277865;28;20042;-71
2021/10/17 04:07:59;;;;;;;26.30;14.20;;;;;;;7.33;100.00;95061.78;10277607;28;20313;-70
2021/10/17 04:12:59;;;;;;;28.15;14.40;;;;;;;7.31;100.00;95066.59;10277466;28;20266;-70
2021/10/17 04:18:00;;;;;;;32.83;16.75;;;;;;;7.26;100.00;95069.16;10260680;28;20039;-70
2021/10/17 04:23:00;;;;;;;33.37;17.13;;;;;;;7.24;100.00;95065.94;10278472;28;20046;-68
2021/10/17 04:28:01;;;;;;;37.75;15.70;;;;;;;7.35;100.00;95075.75;10276059;28;20333;-69
2021/10/17 04:33:02;;;;;;;32.30;15.75;;;;;;;7.39;100.00;95085.94;10270766;28;20174;-68
2021/10/17 04:38:05;;;;;;;37.38;17.75;;;;;;;7.57;100.00;95083.00;10243276;28;20038;-74
2021/10/17 04:43:05;;;;;;;41.05;19.75;;;;;;;7.61;100.00;95084.13;10233506;28;20051;-74
2021/10/17 04:48:06;;;;;;;33.13;15.52;;;;;;;7.47;100.00;95091.69;10237029;28;20031;-67
2021/10/17 04:53:06;;;;;;;34.10;16.55;;;;;;;7.38;100.00;95086.97;10234064;28;20055;-67
2021/10/17 04:58:07;;;;;;;39.78;17.00;;;;;;;7.35;100.00;95093.63;10233976;28;20031;-74
2021/10/17 05:03:07;;;;;;;35.22;16.27;;;;;;;7.43;100.00;95105.78;10254682;28;20027;-73
2021/10/17 05:08:08;;;;;;;34.53;16.75;;;;;;;7.36;100.00;95101.41;10266782;28;20146;-68
2021/10/17 05:13:08;;;;;;;42.33;19.02;;;;;;;7.45;100.00;95109.84;10283081;28;20076;-73
2021/10/17 05:18:09;;;;;;;43.88;17.95;;;;;;;7.55;100.00;95114.53;10276981;28;20027;-71
2021/10/17 05:23:14;;;;;;;38.78;18.98;;;;;;;7.50;100.00;95119.81;10276846;28;20042;-70
2021/10/17 05:28:14;;;;;;;42.03;20.00;;;;;;;7.49;100.00;95121.69;10280648;28;20030;-69
2021/10/17 05:33:14;;;;;;;40.17;19.13;;;;;;;7.61;100.00;95132.28;10282958;28;20041;-72
2021/10/17 05:38:15;;;;;;;38.63;19.33;;;;;;;7.69;100.00;95129.19;10283683;28;21092;-69
2021/10/17 05:43:15;;;;;;;39.77;17.93;;;;;;;7.67;100.00;95122.47;10275854;28;20456;-74
2021/10/17 05:48:16;;;;;;;35.58;17.25;;;;;;;7.69;100.00;95129.19;10245691;28;20275;-69
2021/10/17 05:53:16;;;;;;;35.28;17.77;;;;;;;7.84;100.00;95133.97;10258569;28;20434;-72
2021/10/17 05:58:16;;;;;;;40.10;17.73;;;;;;;8.01;100.00;95128.56;10258337;28;20043;-70
2021/10/17 06:03:18;;;;;;;38.72;19.27;;;;;;;8.19;100.00;95140.84;10281679;28;20038;-64
2021/10/17 06:08:20;;;;;;;37.60;17.85;;;;;;;8.29;100.00;95142.84;10281877;28;20113;-67
2021/10/17 06:13:21;;;;;;;37.90;18.00;;;;;;;8.09;100.00;95142.59;10272123;28;20022;-70
2021/10/17 06:18:23;;;;;;;33.28;16.95;;;;;;;8.17;100.00;95150.19;10265451;28;20030;-68
2021/10/17 06:23:24;;;;;;;35.67;17.27;;;;;;;8.35;100.00;95152.56;10283306;28;20035;-71
2021/10/17 06:28:25;;;;;;;38.67;16.77;;;;;;;8.71;100.00;95149.56;10276066;28;20030;-67
2021/10/17 06:33:25;;;;;;;34.05;17.08;;;;;;;8.97;100.00;95156.00;10280671;28;20274;-72
2021/10/17 06:38:25;;;;;;;34.53;16.27;;;;;;;9.08;100.00;95156.91;10295656;28;20114;-71
2021/10/17 06:43:26;;;;;;;32.72;14.77;;;;;;;9.17;100.00;95152.69;10279724;28;20294;-72
2021/10/17 06:48:26;;;;;;;35.03;16.70;;;;;;;9.54;100.00;95157.34;10296000;28;20034;-73
2021/10/17 06:53:27;;;;;;;34.23;15.07;;;;;;;9.79;100.00;95153.22;10296144;28;20029;-73
2021/10/17 06:58:27;;;;;;;31.73;14.07;;;;;;;9.82;100.00;95165.31;10279953;28;20274;-71
2021/10/17 07:03:27;;;;;;;30.70;14.27;;;;;;;9.45;100.00;95150.00;10279634;28;20384;-67
2021/10/17 07:08:28;;;;;;;33.33;16.33;;;;;;;9.45;100.00;95160.75;10265272;28;20294;-72
2021/10/17 07:13:28;;;;;;;32.00;16.07;;;;;;;9.54;100.00;95156.50;10249894;28;20282;-72
2021/10/17 07:18:28;;;;;;;31.10;14.73;;;;;;;9.76;100.00;95172.50;10279344;28;20477;-72
2021/10/17 07:23:29;;;;;;;28.77;14.13;;;;;;;10.35;100.00;95165.41;10278560;28;20397;-71
2021/10/17 07:28:29;;;;;;;26.92;13.10;;;;;;;10.73;100.00;95166.94;10264406;28;20286;-67
2021/10/17 07:33:30;;;;;;;25.02;12.13;;;;;;;11.02;100.00;95181.78;10262222;28;20034;-73
2021/10/17 07:38:31;;;;;;;27.08;13.05;;;;;;;11.09;100.00;95167.03;10278460;28;20166;-72
2021/10/17 07:43:31;;;;;;;24.55;12.60;;;;;;;11.70;100.00;95170.06;10277664;28;20070;-67
2021/10/17 07:48:36;;;;;;;26.58;13.27;;;;;;;11.75;100.00;95168.19;10277940;28;20097;-71
2021/10/17 07:53:36;;;;;;;27.10;13.27;;;;;;;11.93;100.00;95174.91;10253290;28;20421;-72
2021/10/17 07:58:37;;;;;;;30.23;14.03;;;;;;;12.26;100.00;95167.31;10279355;28;20030;-72
2021/10/17 08:03:37;;;;;;;28.53;12.67;;;;;;;11.83;100.00;95172.19;10276728;28;20338;-64
2021/10/17 08:08:38;;;;;;;25.77;12.70;;;;;;;11.15;100.00;95169.72;10241895;28;20312;-72
2021/10/17 08:13:39;;;;;;;22.20;12.23;;;;;;;11.58;100.00;95162.25;10277024;28;20534;-70
2021/10/17 08:18:39;;;;;;;33.87;13.07;;;;;;;12.07;100.00;95163.59;10244087;28;20027;-74
2021/10/17 08:23:40;;;;;;;25.92;13.38;;;;;;;11.90;100.00;95164.69;10276963;28;20801;-70
2021/10/17 08:28:40;;;;;;;24.38;10.93;;;;;;;12.69;100.00;95169.66;10256536;28;20027;-74
2021/10/17 08:33:41;;;;;;;20.97;11.77;;;;;;;12.98;100.00;95169.00;10262904;28;20628;-74
2021/10/17 08:38:41;;;;;;;29.83;13.98;;;;;;;13.58;100.00;95170.81;10259607;28;20077;-72
2021/10/17 08:43:42;;;;;;;26.15;11.85;;;;;;;14.13;100.00;95159.81;10273863;28;20069;-66
2021/10/17 08:48:50;;;;;;;25.15;11.00;;;;;;;14.53;100.00;95163.19;10278423;28;20019;-74
2021/10/17 08:53:51;;;;;;;20.07;10.53;;;;;;;14.11;100.00;95165.50;10284754;28;20082;-70
2021/10/17 08:58:51;;;;;;;22.20;10.35;;;;;;;13.62;100.00;95169.97;10272593;28;20041;-74
2021/10/17 09:03:58;;;;;;;21.90;10.70;;;;;;;14.27;100.00;95162.66;10276734;28;20475;-68
2021/10/17 09:09:11;;;;;;;22.80;10.75;;;;;;;14.57;100.00;95158.81;10263907;28;20767;-73
2021/10/17 09:14:17;;;;;;;18.55;8.60;;;;;;;14.03;100.00;95155.31;10280068;28;20400;-68
2021/10/17 09:19:23;;;;;;;21.92;8.98;;;;;;;14.17;100.00;95147.34;10281158;28;20417;-73
2021/10/17 09:24:35;;;;;;;22.80;9.85;;;;;;;14.28;100.00;95153.47;10283633;28;20042;-72
2021/10/17 09:29:37;;;;;;;16.95;8.65;;;;;;;13.33;100.00;95151.78;10264328;28;20858;-70
2021/10/17 09:34:38;;;;;;;18.85;9.13;;;;;;;12.77;100.00;95155.59;10255911;28;20508;-75
2021/10/17 09:39:44;;;;;;;20.13;9.00;;;;;;;12.72;100.00;95152.09;10251549;28;20030;-70
2021/10/17 09:44:44;;;;;;;23.80;9.68;;;;;;;12.94;100.00;95165.22;10276837;28;20047;-71
2021/10/17 09:49:47;;;;;;;19.67;8.18;;;;;;;13.41;100.00;95147.72;10256689;28;20568;-70
2021/10/17 09:54:50;;;;;;;13.38;6.55;;;;;;;14.06;100.00;95143.13;10283341;28;20023;-70
2021/10/17 09:59:50;;;;;;;12.73;5.75;;;;;;;14.42;100.00;95140.88;10282308;28;20125;-71
2021/10/17 10:04:52;;;;;;;14.40;5.60;;;;;;;14.79;100.00;95136.69;10279228;28;20027;-74
2021/10/17 10:09:57;;;;;;;9.82;4.75;;;;;;;15.16;100.00;95137.03;10296229;28;20684;-73
2021/10/17 10:14:58;;;;;;;10.20;4.80;;;;;;;15.24;100.00;95132.84;10285885;28;20046;-70
2021/10/17 10:20:00;;;;;;;8.35;4.65;;;;;;;15.53;100.00;95127.25;10280539;28;20023;-70
2021/10/17 10:25:01;;;;;;;8.18;4.53;;;;;;;15.64;100.00;95115.19;10248697;28;20031;-75
2021/10/17 10:30:19;;;;;;;9.07;4.22;;;;;;;15.40;100.00;95111.75;10279705;28;20030;-71
2021/10/17 10:35:22;;;;;;;10.57;5.70;;;;;;;15.79;100.00;95103.28;10261225;28;20464;-73
2021/10/17 10:40:23;;;;;;;12.43;6.10;;;;;;;16.12;100.00;95103.28;10280147;28;20039;-68
2021/10/17 10:45:32;;;;;;;12.57;5.05;;;;;;;16.43;100.00;95089.13;10272057;28;20062;-70
2021/10/17 10:50:34;;;;;;;10.98;5.57;;;;;;;16.63;100.00;95093.34;10229044;28;20034;-70
2021/10/17 10:55:44;;;;;;;12.25;5.63;;;;;;;17.37;100.00;95088.78;10257513;28;20027;-68
2021/10/17 11:00:44;;;;;;;10.52;5.30;;;;;;;17.12;100.00;95082.03;10255994;28;20054;-69
2021/10/17 11:06:04;;;;;;;8.13;4.13;;;;;;;17.20;100.00;95078.59;10257857;28;20114;-72
2021/10/17 11:11:05;;;;;;;12.38;5.60;;;;;;;17.52;100.00;95079.47;10279107;28;20165;-72
2021/10/17 11:16:08;;;;;;;10.65;5.45;;;;;;;17.25;100.00;95078.47;10274102;28;20027;-69
2021/10/17 11:21:09;;;;;;;13.15;5.82;;;;;;;17.90;100.00;95077.19;10239135;28;20064;-68
2021/10/17 11:26:12;;;;;;;11.05;5.65;;;;;;;16.83;100.00;95077.72;10277519;28;20060;-71
2021/10/17 11:31:14;;;;;;;10.43;5.18;;;;;;;16.16;100.00;95062.78;10276761;28;20030;-72
2021/10/17 11:36:17;;;;;;;14.38;7.38;;;;;;;15.24;100.00;95068.66;10291101;28;20029;-67
2021/10/17 11:41:18;;;;;;;15.77;8.27;;;;;;;14.21;100.00;95067.28;10278001;28;20513;-71
2021/10/17 11:46:24;;;;;;;13.55;7.82;;;;;;;13.66;100.00;95067.56;10276630;28;20030;-74
2021/10/17 11:51:24;;;;;;;16.20;7.57;;;;;;;13.56;100.00;95070.38;10285170;28;20027;-72
2021/10/17 11:56:25;;;;;;;13.30;7.28;;;;;;;13.29;100.00;95067.03;10276094;28;20031;-68
2021/10/17 12:01:25;;;;;;;18.98;7.40;;;;;;;13.54;100.00;95062.56;10274540;28;20019;-74
2021/10/17 12:06:26;;;;;;;19.33;6.88;;;;;;;13.64;100.00;95070.56;10277419;28;20038;-70
2021/10/17 12:11:27;;;;;;;12.32;6.18;;;;;;;13.70;100.00;95065.91;10276273;28;20029;-74
2021/10/17 12:16:30;;;;;;;7.05;4.30;;;;;;;13.72;100.00;95065.66;10290298;28;20039;-75
2021/10/17 12:21:33;;;;;;;15.57;5.40;;;;;;;13.70;100.00;95057.81;10270660;28;20023;-70
2021/10/17 12:26:37;;;;;;;11.68;5.88;;;;;;;13.84;100.00;95063.34;10240689;28;20042;-70
2021/10/17 12:31:40;;;;;;;14.40;7.68;;;;;;;13.78;100.00;95057.19;10264609;28;20081;-71
2021/10/17 12:36:42;;;;;;;14.40;6.68;;;;;;;14.27;100.00;95055.31;10259466;28;20535;-70
2021/10/17 12:41:43;;;;;;;14.82;7.40;;;;;;;14.51;100.00;95055.31;10274203;28;20142;-69
2021/10/17 12:47:01;;;;;;;15.77;7.70;;;;;;;14.43;100.00;95058.66;10274900;28;20027;-68
2021/10/17 12:52:02;;;;;;;12.45;6.70;;;;;;;13.98;100.00;95052.66;10274692;28;20784;-75
2021/10/17 12:57:05;;;;;;;9.52;5.50;;;;;;;14.06;100.00;95053.94;10274488;28;20085;-69
2021/10/17 13:02:14;;;;;;;9.55;5.13;;;;;;;14.05;100.00;95058.56;10274833;28;20199;-70
2021/10/17 13:07:24;;;;;;;8.38;5.40;;;;;;;14.02;100.00;95054.53;10274115;28;20504;-66
2021/10/17 13:12:26;;;;;;;11.05;6.28;;;;;;;14.10;100.00;95055.78;10261532;28;20035;-73
2021/10/17 13:17:27;;;;;;;11.25;5.72;;;;;;;14.36;100.00;95058.22;10267102;28;20066;-71
2021/10/17 13:22:28;;;;;;;13.50;5.78;;;;;;;14.57;100.00;95061.47;10256912;28;20460;-70
2021/10/17 13:27:28;;;;;;;8.93;5.13;;;;;;;14.64;100.00;95053.81;10274540;28;20089;-70
2021/10/17 13:32:29;;;;;;;13.52;7.03;;;;;;;14.75;100.00;95059.91;10274057;28;20033;-68
2021/10/17 13:37:30;;;;;;;10.25;4.78;;;;;;;14.80;100.00;95049.00;10271365;28;20082;-74
2021/10/17 13:42:30;;;;;;;11.30;4.88;;;;;;;14.96;100.00;95055.00;10273753;28;20046;-73
2021/10/17 13:47:31;;;;;;;5.30;2.90;;;;;;;14.92;100.00;95061.31;10275139;28;20029;-76
2021/10/17 13:52:31;;;;;;;5.38;2.58;;;;;;;14.85;100.00;95056.25;10280160;28;20388;-69
2021/10/17 13:57:32;;;;;;;5.70;3.43;;;;;;;14.76;100.00;95056.06;10274545;28;20038;-74
2021/10/17 14:02:32;;;;;;;10.07;3.10;;;;;;;14.61;100.00;95061.66;10277295;28;20297;-71
2021/10/17 14:07:33;;;;;;;6.30;3.08;;;;;;;14.62;100.00;95064.09;10256397;28;20130;-70
2021/10/17 14:12:38;;;;;;;4.22;2.72;;;;;;;14.44;100.00;95064.84;10240575;28;20023;-68
2021/10/17 14:17:39;;;;;;;4.50;2.38;;;;;;;14.38;100.00;95076.84;10240263;28;20494;-75
2021/10/17 14:22:39;;;;;;;4.65;2.67;;;;;;;14.26;100.00;95074.53;10255557;28;20105;-66
2021/10/17 14:27:40;;;;;;;4.57;2.77;;;;;;;14.10;100.00;95082.81;10239945;29;20185;-69
2021/10/17 14:32:40;;;;;;;5.95;3.05;;;;;;;14.06;100.00;95083.69;10272754;28;20799;-67
2021/10/17 14:37:41;;;;;;;7.73;3.10;;;;;;;13.92;100.00;95084.34;10278770;28;20636;-68
2021/10/17 14:42:41;;;;;;;5.50;3.80;;;;;;;13.78;100.00;95084.19;10279353;28;20744;-69
2021/10/17 14:47:42;;;;;;;9.27;4.22;;;;;;;13.67;100.00;95088.09;10278577;28;20079;-69
2021/10/17 14:52:42;;;;;;;8.38;5.25;;;;;;;13.52;100.00;95089.03;10244229;28;20023;-70
2021/10/17 14:57:42;;;;;;;7.37;4.80;;;;;;;13.41;100.00;95095.59;10238939;29;20027;-67
2021/10/17 15:02:43;;;;;;;8.00;4.53;;;;;;;13.31;100.00;95094.56;10238744;28;20345;-74
2021/10/17 15:07:44;;;;;;;7.13;4.13;;;;;;;13.10;100.00;95098.47;10240048;28;20669;-73
2021/10/17 15:12:45;;;;;;;7.25;3.72;;;;;;;13.08;100.00;95104.16;10238233;29;20038;-74
2021/10/17 15:17:49;;;;;;;7.65;4.40;;;;;;;12.94;100.00;95100.47;10237665;29;20025;-69
2021/10/17 15:22:50;;;;;;;7.47;5.00;;;;;;;12.77;100.00;95107.03;10252465;28;20069;-69
2021/10/17 15:27:51;;;;;;;8.30;4.70;;;;;;;12.68;100.00;95113.28;10277781;28;20129;-72
2021/10/17 15:32:51;;;;;;;8.57;4.15;;;;;;;12.55;100.00;95115.50;10277499;28;20416;-72
2021/10/17 15:37:51;;;;;;;10.13;5.13;;;;;;;12.34;100.00;95120.16;10277059;28;20030;-69
2021/10/17 15:42:54;;;;;;;7.20;4.25;;;;;;;12.34;100.00;95124.75;10271946;28;20306;-72
2021/10/17 15:47:54;;;;;;;8.68;4.88;;;;;;;12.19;100.00;95128.28;10276922;28;20093;-72
2021/10/17 15:52:55;;;;;;;7.60;4.60;;;;;;;12.06;100.00;95129.66;10276643;28;20029;-68
2021/10/17 15:57:55;;;;;;;11.85;5.82;;;;;;;12.01;100.00;95138.56;10272322;28;20857;-72
2021/10/17 16:02:57;;;;;;;11.80;6.25;;;;;;;11.83;100.00;95141.78;10276515;28;20031;-73
2021/10/17 16:07:58;;;;;;;19.15;5.90;;;;;;;11.65;100.00;95154.69;10276882;28;20031;-68
2021/10/17 16:12:58;;;;;;;9.57;5.10;;;;;;;11.61;100.00;95162.53;10275149;28;20058;-69
2021/10/17 16:17:59;;;;;;;17.45;6.57;;;;;;;11.60;100.00;95160.09;10261118;28;20310;-69
2021/10/17 16:22:59;;;;;;;10.00;5.37;;;;;;;11.55;100.00;95168.16;10273737;28;20031;-72
2021/10/17 16:28:01;;;;;;;12.10;6.47;;;;;;;11.42;100.00;95167.63;10275183;28;20974;-69
2021/10/17 16:33:01;;;;;;;16.52;7.32;;;;;;;11.32;100.00;95181.06;10274681;28;20062;-68
2021/10/17 16:38:04;;;;;;;13.85;6.45;;;;;;;11.20;100.00;95184.00;10252253;28;20133;-69
2021/10/17 16:43:04;;;;;;;12.38;6.22;;;;;;;11.24;100.00;95184.28;10274574;28;20097;-72
2021/10/17 16:48:05;;;;;;;10.60;6.47;;;;;;;11.24;100.00;95186.97;10271875;28;20349;-72
2021/10/17 16:53:06;;;;;;;13.40;6.85;;;;;;;11.25;100.00;95185.91;10247713;28;20301;-68
2021/10/17 16:58:06;;;;;;;22.77;7.18;;;;;;;11.18;100.00;95190.72;10275659;28;20113;-73
2021/10/17 17:03:07;;;;;;;15.93;7.63;;;;;;;11.06;100.00;95199.81;10239043;28;20039;-75
2021/10/17 17:08:08;;;;;;;13.77;7.25;;;;;;;11.06;100.00;95191.75;10234490;29;20023;-73
2021/10/17 17:13:08;;;;;;;13.60;7.35;;;;;;;11.06;100.00;95191.75;10234801;28;20127;-68
2021/10/17 17:18:09;;;;;;;15.45;8.02;;;;;;;11.05;100.00;95202.78;10235037;28;20065;-73
2021/10/17 17:23:10;;;;;;;17.50;7.78;;;;;;;11.08;100.00;95204.97;10236344;28;20031;-73
2021/10/17 17:28:10;;;;;;;15.55;7.50;;;;;;;11.09;100.00;95203.88;10243603;28;20027;-68
2021/10/17 17:33:11;;;;;;;16.50;7.97;;;;;;;11.08;100.00;95199.59;10242419;28;20025;-67
2021/10/17 17:38:11;;;;;;;12.80;7.53;;;;;;;11.08;100.00;95205.75;10243260;28;20290;-67
2021/10/17 17:43:13;;;;;;;15.50;7.32;;;;;;;11.01;100.00;95204.38;10274655;28;20051;-68
2021/10/17 17:48:13;;;;;;;16.10;7.55;;;;;;;10.93;100.00;95205.72;10264385;28;20101;-73
2021/10/17 17:53:14;;;;;;;14.20;6.93;;;;;;;10.94;100.00;95205.44;10272996;28;20114;-72
2021/10/17 17:58:14;;;;;;;11.88;6.88;;;;;;;10.96;100.00;95212.44;10240620;28;20027;-70
2021/10/17 18:03:15;;;;;;;9.47;5.60;;;;;;;10.93;100.00;95216.47;10271362;28;20035;-72
2021/10/17 18:08:15;;;;;;;13.90;7.35;;;;;;;10.88;100.00;95217.25;10281212;28;20286;-69
2021/10/17 18:13:15;;;;;;;12.48;6.47;;;;;;;10.88;100.00;95225.31;10282734;28;20484;-72
2021/10/17 18:18:16;;;;;;;15.53;6.97;;;;;;;10.75;100.00;95223.91;10280953;28;20440;-71
2021/10/17 18:23:17;;;;;;;15.48;7.68;;;;;;;10.75;100.00;95220.44;10277647;28;20306;-69
2021/10/17 18:28:18;;;;;;;13.98;6.60;;;;;;;10.70;100.00;95226.59;10280268;28;20034;-69
2021/10/17 18:33:18;;;;;;;14.53;7.77;;;;;;;10.62;100.00;95231.63;10280696;28;20413;-68
2021/10/17 18:38:19;;;;;;;15.85;7.20;;;;;;;10.65;100.00;95231.94;10280457;28;20286;-72
2021/10/17 18:43:20;;;;;;;14.82;8.13;;;;;;;10.46;100.00;95238.81;10279031;28;20298;-75
2021/10/17 18:48:20;;;;;;;15.50;8.05;;;;;;;10.32;100.00;95236.53;10280046;28;20198;-74
2021/10/17 18:53:21;;;;;;;20.88;9.25;;;;;;;10.33;100.00;95237.38;10279434;28;20054;-68
2021/10/17 18:58:21;;;;;;;14.90;7.57;;;;;;;10.35;100.00;95237.94;10278914;28;20022;-76
2021/10/17 19:03:22;;;;;;;17.63;7.57;;;;;;;10.29;100.00;95241.66;10278267;28;20286;-76
2021/10/17 19:08:22;;;;;;;15.02;7.85;;;;;;;10.27;100.00;95249.97;10278519;28;20034;-69
2021/10/17 19:13:23;;;;;;;15.68;8.38;;;;;;;10.26;100.00;95256.41;10279386;28;20110;-67
2021/10/17 19:18:23;;;;;;;18.90;8.23;;;;;;;10.29;100.00;95260.44;10277764;28;20050;-70
2021/10/17 19:23:24;;;;;;;17.67;8.67;;;;;;;10.34;100.00;95264.00;10257840;28;20566;-74
2021/10/17 19:28:24;;;;;;;18.55;8.50;;;;;;;10.37;100.00;95266.19;10259951;28;20270;-70
2021/10/17 19:33:25;;;;;;;19.43;8.67;;;;;;;10.38;100.00;95257.06;10253449;28;20114;-69
2021/10/17 19:38:26;;;;;;;16.38;9.20;;;;;;;10.41;100.00;95261.91;10265146;28;20392;-73
2021/10/17 19:43:26;;;;;;;19.50;9.13;;;;;;;10.43;100.00;95267.00;10259768;28;20039;-70
2021/10/17 19:48:27;;;;;;;21.30;10.00;;;;;;;10.44;100.00;95271.31;10239374;28;20122;-72
2021/10/17 19:53:28;;;;;;;18.20;9.63;;;;;;;10.45;100.00;95270.25;10261610;28;20030;-69
2021/10/17 19:58:28;;;;;;;20.63;10.57;;;;;;;10.39;100.00;95266.72;10258451;28;20035;-68
2021/10/17 20:03:29;;;;;;;17.80;9.70;;;;;;;10.41;100.00;95269.16;10240515;28;20286;-69
2021/10/17 20:08:30;;;;;;;18.97;9.43;;;;;;;10.39;100.00;95272.09;10265212;28;20282;-73
2021/10/17 20:13:30;;;;;;;24.45;13.05;;;;;;;10.41;100.00;95267.28;10270406;28;20259;-71
2021/10/17 20:18:32;;;;;;;25.80;11.77;;;;;;;10.40;100.00;95268.34;10286677;28;20703;-73
2021/10/17 20:23:32;;;;;;;20.58;10.40;;;;;;;10.40;100.00;95271.03;10266288;28;20528;-69
2021/10/17 20:28:33;;;;;;;23.20;11.32;;;;;;;10.41;100.00;95277.22;10247300;28;20113;-69
2021/10/17 20:33:36;;;;;;;20.95;11.13;;;;;;;10.41;100.00;95280.72;10277133;28;20023;-70
2021/10/17 20:43:56;;;;;;;25.38;11.80;;;;;;;10.41;100.00;95279.91;10276461;28;20051;-69
2021/10/17 20:48:56;;;;;;;25.43;12.27;;;;;;;10.35;100.00;95272.88;10276562;28;20034;-72
2021/10/17 20:53:57;;;;;;;27.52;13.45;;;;;;;10.37;100.00;95286.88;10276155;28;20304;-75
2021/10/17 20:58:58;;;;;;;29.08;13.65;;;;;;;10.38;100.00;95289.28;10280339;28;20138;-69
2021/10/17 21:03:58;;;;;;;28.50;14.27;;;;;;;10.27;100.00;95291.06;10283595;28;20401;-73
2021/10/17 21:08:59;;;;;;;27.55;13.98;;;;;;;10.24;100.00;95291.56;10281882;28;20492;-73
2021/10/17 21:14:00;;;;;;;29.10;13.75;;;;;;;10.24;100.00;95286.22;10282807;28;20033;-73
2021/10/17 21:19:01;;;;;;;32.88;15.00;;;;;;;10.08;100.00;95295.19;10282073;28;20416;-72
2021/10/17 21:24:01;;;;;;;30.02;15.25;;;;;;;10.15;100.00;95287.72;10281637;28;20520;-67
2021/10/17 21:29:03;;;;;;;32.13;15.60;;;;;;;10.17;100.00;95285.63;10282510;28;20120;-72
2021/10/17 21:34:03;;;;;;;32.45;15.35;;;;;;;9.98;100.00;95293.25;10282105;28;20413;-73
2021/10/17 21:39:04;;;;;;;32.00;14.55;;;;;;;9.81;100.00;95285.31;10282036;28;20023;-72
2021/10/17 21:44:04;;;;;;;31.65;15.25;;;;;;;9.89;100.00;95295.59;10294436;28;20136;-69
2021/10/17 21:49:05;;;;;;;29.85;14.57;;;;;;;9.95;100.00;95290.25;10274525;28;20509;-69
2021/10/17 21:54:05;;;;;;;35.43;16.00;;;;;;;10.03;100.00;95297.84;10281435;28;20520;-72
2021/10/17 21:59:06;;;;;;;34.40;15.35;;;;;;;10.04;100.00;95300.25;10281652;28;20266;-73
2021/10/17 22:04:06;;;;;;;30.90;14.73;;;;;;;9.99;100.00;95294.03;10281286;28;20023;-68
2021/10/17 22:09:10;;;;;;;31.10;15.65;;;;;;;10.12;100.00;95290.94;10281841;28;20341;-69
2021/10/17 22:14:11;;;;;;;31.30;14.43;;;;;;;10.20;100.00;95303.06;10260407;28;20485;-73
2021/10/17 22:19:11;;;;;;;39.47;16.40;;;;;;;10.18;100.00;95295.28;10255834;28;20039;-68
2021/10/17 22:24:12;;;;;;;30.45;15.23;;;;;;;9.88;100.00;95290.47;10241948;28;20066;-69
2021/10/17 22:29:13;;;;;;;34.03;15.50;;;;;;;9.80;100.00;95297.09;10241546;29;20121;-68
2021/10/17 22:34:13;;;;;;;32.70;15.73;;;;;;;9.79;100.00;95298.16;10241059;29;20106;-67
2021/10/17 22:39:13;;;;;;;38.07;15.60;;;;;;;9.96;100.00;95294.56;10240961;29;20042;-74
2021/10/17 22:44:14;;;;;;;34.85;15.23;;;;;;;10.06;100.00;95287.41;10240187;28;20354;-69
2021/10/17 22:49:14;;;;;;;32.95;15.80;;;;;;;9.85;100.00;95291.78;10276250;28;20062;-71
2021/10/17 22:54:16;;;;;;;29.70;15.93;;;;;;;9.87;100.00;95295.00;10280893;28;20076;-67